createdAt,value
2023-04-20T00:01:56.929Z,2.60
2023-04-20T00:04:23.559Z,2.70
2023-04-20T00:06:51.745Z,2.63
2023-04-20T00:09:18.813Z,2.40
2023-04-20T00:11:45.548Z,2.43
2023-04-20T00:14:12.160Z,2.40
2023-04-20T00:16:38.662Z,2.63
2023-04-20T00:19:05.181Z,2.60
2023-04-20T00:21:31.610Z,2.30
2023-04-20T00:23:58.095Z,2.60
2023-04-20T00:26:24.550Z,2.77
2023-04-20T00:28:51.777Z,2.63
2023-04-20T00:31:19.471Z,2.40
2023-04-20T00:33:46.046Z,2.47
2023-04-20T00:36:12.513Z,2.50
2023-04-20T00:38:39.159Z,2.50
2023-04-20T00:41:05.663Z,2.60
2023-04-20T00:43:32.202Z,2.87
2023-04-20T00:45:58.757Z,2.70
2023-04-20T00:48:25.330Z,3.00
2023-04-20T00:50:52.357Z,2.77
2023-04-20T00:53:19.180Z,2.23
2023-04-20T00:55:45.746Z,2.60
2023-04-20T00:58:12.580Z,2.70
2023-04-20T01:00:40.582Z,2.67
2023-04-20T01:03:08.771Z,2.60
2023-04-20T01:05:35.781Z,2.83
2023-04-20T01:08:02.334Z,2.93
2023-04-20T01:10:28.851Z,3.20
2023-04-20T01:12:55.310Z,2.70
2023-04-20T01:15:21.762Z,2.80
2023-04-20T01:17:49.657Z,2.87
2023-04-20T01:20:16.221Z,2.90
2023-04-20T01:22:54.259Z,2.80
2023-04-20T01:25:21.147Z,2.70
2023-04-20T01:27:48.069Z,3.20
2023-04-20T01:30:14.786Z,2.60
2023-04-20T01:32:41.408Z,3.00
2023-04-20T01:35:09.118Z,3.10
2023-04-20T01:37:36.399Z,3.00
2023-04-20T01:40:03.887Z,2.90
2023-04-20T01:42:30.491Z,3.10
2023-04-20T01:44:56.992Z,2.90
2023-04-20T01:47:23.519Z,2.97
2023-04-20T01:49:50.172Z,2.90
2023-04-20T01:52:16.663Z,3.13
2023-04-20T01:54:43.110Z,3.07
2023-04-20T01:57:09.584Z,2.93
2023-04-20T01:59:36.065Z,3.00
2023-04-20T02:02:02.578Z,3.30
2023-04-20T02:04:29.120Z,3.10
2023-04-20T02:06:55.676Z,3.13
2023-04-20T02:09:22.180Z,3.13
2023-04-20T02:11:48.779Z,3.30
2023-04-20T02:14:15.250Z,3.30
2023-04-20T02:16:42.756Z,3.40
2023-04-20T02:19:09.977Z,3.93
2023-04-20T02:21:36.468Z,3.10
2023-04-20T02:24:02.981Z,3.37
2023-04-20T02:26:29.457Z,3.30
2023-04-20T02:28:55.967Z,3.27
2023-04-20T02:31:22.514Z,3.27
2023-04-20T02:33:49.974Z,3.73
2023-04-20T02:36:16.467Z,3.40
2023-04-20T02:38:43.040Z,3.23
2023-04-20T02:41:09.525Z,3.57
2023-04-20T02:43:36.268Z,3.47
2023-04-20T02:46:02.824Z,3.37
2023-04-20T02:48:29.312Z,3.80
2023-04-20T02:50:56.804Z,3.70
2023-04-20T02:53:23.374Z,3.57
2023-04-20T02:55:49.973Z,3.70
2023-04-20T02:58:17.685Z,3.60
2023-04-20T03:00:44.289Z,4.00
2023-04-20T03:03:11.083Z,3.93
2023-04-20T03:05:37.683Z,3.40
2023-04-20T03:08:05.958Z,3.97
2023-04-20T03:10:32.685Z,4.10
2023-04-20T03:12:59.403Z,3.90
2023-04-20T03:15:25.934Z,3.80
2023-04-20T03:17:52.664Z,4.13
2023-04-20T03:20:19.243Z,4.00
2023-04-20T03:22:45.739Z,3.90
2023-04-20T03:25:12.420Z,3.87
2023-04-20T03:27:38.894Z,3.93
2023-04-20T03:30:06.923Z,4.20
2023-04-20T03:32:33.468Z,3.97
2023-04-20T03:34:59.974Z,3.70
2023-04-20T03:37:26.394Z,4.00
2023-04-20T03:39:52.848Z,4.33
2023-04-20T03:42:19.497Z,4.20
2023-04-20T03:44:46.019Z,4.00
2023-04-20T03:47:12.615Z,4.43
2023-04-20T03:49:39.105Z,5.00
2023-04-20T03:52:05.892Z,4.23
2023-04-20T03:54:32.309Z,4.27
2023-04-20T03:56:58.797Z,4.77
2023-04-20T03:59:25.313Z,4.53
2023-04-20T04:01:52.017Z,4.40
2023-04-20T04:04:19.008Z,4.53
2023-04-20T04:06:46.072Z,4.60
2023-04-20T04:09:12.504Z,4.73
2023-04-20T04:11:38.974Z,4.93
2023-04-20T04:14:05.516Z,4.13
2023-04-20T04:16:32.283Z,4.20
2023-04-20T04:18:58.745Z,4.80
2023-04-20T04:21:25.634Z,4.80
2023-04-20T04:23:52.091Z,4.63
2023-04-20T04:26:21.404Z,4.83
2023-04-20T04:28:49.315Z,4.70
2023-04-20T04:31:17.444Z,4.73
2023-04-20T04:33:45.763Z,4.73
2023-04-20T04:36:15.201Z,4.60
2023-04-20T04:38:44.998Z,4.90
2023-04-20T04:41:12.723Z,5.00
2023-04-20T04:43:43.078Z,5.20
2023-04-20T04:46:10.157Z,4.60
2023-04-20T04:48:38.070Z,4.70
2023-04-20T04:51:04.709Z,4.83
2023-04-20T04:53:31.238Z,4.70
2023-04-20T04:55:57.674Z,5.10
2023-04-20T04:58:24.205Z,4.80
2023-04-20T05:00:50.957Z,4.80
2023-04-20T05:03:17.831Z,4.90
2023-04-20T05:05:44.407Z,4.90
2023-04-20T05:08:11.219Z,4.77
2023-04-20T05:10:37.928Z,5.00
2023-04-20T05:13:04.402Z,4.70
2023-04-20T05:15:32.373Z,5.13
2023-04-20T05:17:58.996Z,4.77
2023-04-20T05:20:25.488Z,5.17
2023-04-20T05:22:52.037Z,5.00
2023-04-20T05:25:18.695Z,5.07
2023-04-20T05:27:45.191Z,6.40
2023-04-20T05:30:20.233Z,4.83
2023-04-20T05:32:51.104Z,5.70
2023-04-20T05:35:18.797Z,5.17
2023-04-20T05:37:45.355Z,5.30
2023-04-20T05:40:12.935Z,5.50
2023-04-20T05:42:39.549Z,5.77
2023-04-20T05:45:06.940Z,7.03
2023-04-20T05:47:33.480Z,7.90
2023-04-20T05:49:59.944Z,5.53
2023-04-20T05:52:26.512Z,5.70
2023-04-20T05:54:53.243Z,6.03
2023-04-20T05:57:19.669Z,5.90
2023-04-20T05:59:46.671Z,5.70
2023-04-20T06:02:13.236Z,5.37
2023-04-20T06:04:39.910Z,9.20
2023-04-20T06:07:06.401Z,6.70
2023-04-20T06:09:32.879Z,6.53
2023-04-20T06:12:00.681Z,6.97
2023-04-20T06:14:27.131Z,8.07
2023-04-20T06:16:53.941Z,7.70
2023-04-20T06:19:20.466Z,7.87
2023-04-20T06:21:46.984Z,8.73
2023-04-20T06:24:13.609Z,7.87
2023-04-20T06:26:40.039Z,8.37
2023-04-20T06:29:06.753Z,8.80
2023-04-20T06:31:33.341Z,10.40
2023-04-20T06:33:59.847Z,9.40
2023-04-20T06:36:27.637Z,11.23
2023-04-20T06:38:55.018Z,11.23
2023-04-20T06:41:21.475Z,9.90
2023-04-20T06:43:47.910Z,13.00
2023-04-20T06:46:14.528Z,31.80
2023-04-20T06:48:41.206Z,15.20
2023-04-20T06:51:07.663Z,12.63
2023-04-20T06:53:34.395Z,13.33
2023-04-20T06:56:00.898Z,10.43
2023-04-20T06:58:27.350Z,10.90
2023-04-20T07:00:54.102Z,10.67
2023-04-20T07:03:20.791Z,10.70
2023-04-20T07:05:47.360Z,11.37
2023-04-20T07:08:15.836Z,10.43
2023-04-20T07:10:42.568Z,10.57
2023-04-20T07:13:09.991Z,10.93
2023-04-20T07:15:36.412Z,11.07
2023-04-20T07:18:03.053Z,11.80
2023-04-20T07:20:29.825Z,11.83
2023-04-20T07:22:56.323Z,10.63
2023-04-20T07:25:23.303Z,11.20
2023-04-20T07:27:49.957Z,10.93
2023-04-20T07:30:16.448Z,11.83
2023-04-20T07:32:42.916Z,18.57
2023-04-20T07:35:09.948Z,13.90
2023-04-20T07:37:36.478Z,12.07
2023-04-20T07:40:06.754Z,11.40
2023-04-20T07:42:36.802Z,10.33
2023-04-20T07:45:04.589Z,11.83
2023-04-20T07:47:31.103Z,11.50
2023-04-20T07:49:57.650Z,11.40
2023-04-20T07:52:25.691Z,13.20
2023-04-20T07:54:58.006Z,13.57
2023-04-20T07:57:24.653Z,15.07
2023-04-20T07:59:51.210Z,12.10
2023-04-20T08:02:17.765Z,13.10
2023-04-20T08:04:44.525Z,13.07
2023-04-20T08:07:11.315Z,12.90
2023-04-20T08:09:38.102Z,14.23
2023-04-20T08:12:05.289Z,12.87
2023-04-20T08:14:32.100Z,15.13
2023-04-20T08:16:58.653Z,20.00
2023-04-20T08:19:25.235Z,15.83
2023-04-20T08:21:51.895Z,13.83
2023-04-20T08:24:18.502Z,15.40
2023-04-20T08:26:45.701Z,17.83
2023-04-20T08:29:12.151Z,15.93
2023-04-20T08:31:38.903Z,15.10
2023-04-20T08:34:05.354Z,15.03
2023-04-20T08:36:32.164Z,17.00
2023-04-20T08:39:09.877Z,16.93
2023-04-20T08:41:36.831Z,15.90
2023-04-20T08:44:03.809Z,16.53
2023-04-20T08:46:31.096Z,16.47
2023-04-20T08:49:00.326Z,16.70
2023-04-20T08:51:27.402Z,16.07
2023-04-20T08:53:56.297Z,15.77
2023-04-20T08:56:35.617Z,17.27
2023-04-20T08:59:03.900Z,16.77
2023-04-20T09:01:35.505Z,18.43
2023-04-20T09:04:16.720Z,16.43
2023-04-20T09:06:50.073Z,16.00
2023-04-20T09:09:17.111Z,17.70
2023-04-20T09:11:43.922Z,17.90
2023-04-20T09:14:12.900Z,15.13
2023-04-20T09:16:51.063Z,17.77
2023-04-20T09:19:31.115Z,17.47
2023-04-20T09:22:01.245Z,16.70
2023-04-20T09:24:34.961Z,18.10
2023-04-20T09:27:14.260Z,17.13
2023-04-20T09:29:40.744Z,18.13
2023-04-20T09:32:07.337Z,18.50
2023-04-20T09:34:46.737Z,18.70
2023-04-20T09:37:16.642Z,18.47
2023-04-20T09:39:44.565Z,19.20
2023-04-20T09:42:15.521Z,20.13
2023-04-20T09:44:42.774Z,33.40
2023-04-20T09:47:17.805Z,19.30
2023-04-20T09:49:46.553Z,19.10
2023-04-20T09:52:18.007Z,50.23
2023-04-20T09:54:45.378Z,60.57
2023-04-20T09:57:13.034Z,45.83
2023-04-20T09:59:42.929Z,22.37
2023-04-20T10:02:12.425Z,26.47
2023-04-20T10:04:54.379Z,26.97
2023-04-20T10:07:31.758Z,59.07
2023-04-20T10:10:15.904Z,30.13
2023-04-20T10:12:49.503Z,18.13
2023-04-20T10:15:16.703Z,19.23
2023-04-20T10:17:43.934Z,19.93
2023-04-20T10:20:29.510Z,19.43
2023-04-20T10:23:09.622Z,19.80
2023-04-20T10:25:37.005Z,21.57
2023-04-20T10:28:08.305Z,20.03
2023-04-20T10:30:35.417Z,18.50
2023-04-20T10:33:11.186Z,19.57
2023-04-20T10:35:46.841Z,18.43
2023-04-20T10:38:13.437Z,18.87
2023-04-20T10:40:40.252Z,16.27
2023-04-20T10:43:19.695Z,14.57
2023-04-20T10:45:46.192Z,11.63
2023-04-20T10:48:14.096Z,11.70
2023-04-20T10:50:41.920Z,11.13
2023-04-20T10:53:22.698Z,11.03
2023-04-20T10:55:59.581Z,12.13
2023-04-20T10:58:26.277Z,10.93
2023-04-20T11:01:01.157Z,11.00
2023-04-20T11:03:29.357Z,11.47
2023-04-20T11:06:00.913Z,10.13
2023-04-20T11:08:40.484Z,11.60
2023-04-20T11:11:21.692Z,11.83
2023-04-20T11:13:48.614Z,11.70
2023-04-20T11:16:16.907Z,11.10
2023-04-20T11:18:52.617Z,10.90
2023-04-20T11:21:20.012Z,10.60
2023-04-20T11:23:46.798Z,11.30
2023-04-20T11:26:13.475Z,10.80
2023-04-20T11:28:55.853Z,11.53
2023-04-20T11:31:23.444Z,10.00
2023-04-20T11:33:50.200Z,9.83
2023-04-20T11:36:23.912Z,11.00
2023-04-20T11:38:51.117Z,10.37
2023-04-20T11:41:18.274Z,11.10
2023-04-20T11:43:46.044Z,10.47
2023-04-20T11:46:17.122Z,10.90
2023-04-20T11:48:44.249Z,10.20
2023-04-20T11:51:10.813Z,10.43
2023-04-20T11:53:37.978Z,10.80
2023-04-20T11:56:05.584Z,10.23
2023-04-20T11:58:32.017Z,10.10
2023-04-20T12:01:00.080Z,10.67
2023-04-20T12:03:27.486Z,10.10
2023-04-20T12:05:54.164Z,10.82
2023-04-20T12:08:21.143Z,10.25
2023-04-20T12:10:47.612Z,11.47
2023-04-20T12:13:14.970Z,10.57
2023-04-20T12:15:41.462Z,10.93
2023-04-20T12:18:08.094Z,10.48
2023-04-20T12:20:34.677Z,21.73
2023-04-20T12:23:02.412Z,28.65
2023-04-20T12:25:28.885Z,22.63
2023-04-20T12:27:55.334Z,13.95
2023-04-20T12:30:21.827Z,31.10
2023-04-20T12:32:48.535Z,23.23
2023-04-20T12:35:15.051Z,14.38
2023-04-20T12:37:41.570Z,12.38
2023-04-20T12:40:08.572Z,20.38
2023-04-20T12:42:35.251Z,12.77
2023-04-20T12:45:01.812Z,12.25
2023-04-20T12:47:28.346Z,11.63
2023-04-20T12:49:55.130Z,11.35
2023-04-20T12:52:21.658Z,10.23
2023-04-20T12:54:48.090Z,11.02
2023-04-20T12:57:14.548Z,16.13
2023-04-20T12:59:41.228Z,13.48
2023-04-20T13:02:07.712Z,15.00
2023-04-20T13:04:36.381Z,15.93
2023-04-20T13:07:05.259Z,17.08
2023-04-20T13:09:31.729Z,13.25
2023-04-20T13:11:58.948Z,10.88
2023-04-20T13:14:26.436Z,10.18
2023-04-20T13:16:55.142Z,10.70
2023-04-20T13:19:22.093Z,9.98
2023-04-20T13:21:48.558Z,10.45
2023-04-20T13:24:15.011Z,10.75
2023-04-20T13:26:41.486Z,10.85
2023-04-20T13:29:08.139Z,10.50
2023-04-20T13:31:34.703Z,13.48
2023-04-20T13:34:01.181Z,9.80
2023-04-20T13:36:28.316Z,10.38
2023-04-20T13:38:57.374Z,9.10
2023-04-20T13:41:23.891Z,8.77
2023-04-20T13:43:50.741Z,11.23
2023-04-20T13:46:17.834Z,9.13
2023-04-20T13:48:44.357Z,11.13
2023-04-20T13:51:10.964Z,10.13
2023-04-20T13:53:37.466Z,11.63
2023-04-20T13:56:04.944Z,10.77
2023-04-20T13:58:31.619Z,8.32
2023-04-20T14:00:58.105Z,8.85
2023-04-20T14:03:26.177Z,12.57
2023-04-20T14:05:53.054Z,10.27
2023-04-20T14:08:19.901Z,9.15
2023-04-20T14:10:46.357Z,13.63
2023-04-20T14:13:12.878Z,12.63
2023-04-20T14:15:39.468Z,11.35
2023-04-20T14:18:06.061Z,8.48
2023-04-20T14:20:32.733Z,17.20
2023-04-20T14:22:59.219Z,10.13
2023-04-20T14:25:25.707Z,9.98
2023-04-20T14:27:52.175Z,6.57
2023-04-20T14:30:18.714Z,9.63
2023-04-20T14:32:59.004Z,6.88
2023-04-20T14:35:28.147Z,7.05
2023-04-20T14:37:54.656Z,9.27
2023-04-20T14:40:21.273Z,7.68
2023-04-20T14:42:47.749Z,7.00
2023-04-20T14:45:14.362Z,6.60
2023-04-20T14:47:41.190Z,6.65
2023-04-20T14:50:09.044Z,6.55
2023-04-20T14:52:35.495Z,6.78
2023-04-20T14:55:02.759Z,6.43
2023-04-20T14:57:29.636Z,6.43
2023-04-20T14:59:56.072Z,6.40
2023-04-20T15:02:22.632Z,6.55
2023-04-20T15:04:49.320Z,6.30
2023-04-20T15:07:15.961Z,6.00
2023-04-20T15:09:42.392Z,6.32
2023-04-20T15:12:08.806Z,5.70
2023-04-20T15:14:35.425Z,6.65
2023-04-20T15:17:01.927Z,6.13
2023-04-20T15:19:28.500Z,6.35
2023-04-20T15:21:55.001Z,6.03
2023-04-20T15:24:21.472Z,5.97
2023-04-20T15:26:48.008Z,5.65
2023-04-20T15:29:14.549Z,6.15
2023-04-20T15:31:43.381Z,6.22
2023-04-20T15:34:11.216Z,6.75
2023-04-20T15:36:38.144Z,6.03
2023-04-20T15:39:04.731Z,5.97
2023-04-20T15:41:31.169Z,6.28
2023-04-20T15:43:57.741Z,6.22
2023-04-20T15:46:26.439Z,6.50
2023-04-20T15:48:53.078Z,6.22
2023-04-20T15:51:20.117Z,7.45
2023-04-20T15:53:50.497Z,6.82
2023-04-20T15:56:18.740Z,5.95
2023-04-20T15:58:46.029Z,9.50
2023-04-20T16:01:12.520Z,6.00
2023-04-20T16:03:39.355Z,6.22
2023-04-20T16:06:07.145Z,6.50
2023-04-20T16:08:33.774Z,6.93
2023-04-20T16:11:00.311Z,6.35
2023-04-20T16:13:27.012Z,6.20
2023-04-20T16:15:55.700Z,7.57
2023-04-20T16:18:22.214Z,6.65
2023-04-20T16:20:48.677Z,6.75
2023-04-20T16:23:15.200Z,6.35
2023-04-20T16:25:41.888Z,5.93
2023-04-20T16:28:08.649Z,6.15
2023-04-20T16:30:36.933Z,7.60
2023-04-20T16:33:03.871Z,7.35
2023-04-20T16:35:30.366Z,8.05
2023-04-20T16:37:57.500Z,8.07
2023-04-20T16:40:26.165Z,7.68
2023-04-20T16:42:52.639Z,7.63
2023-04-20T16:45:19.403Z,8.07
2023-04-20T16:47:46.399Z,8.43
2023-04-20T16:50:19.244Z,7.30
2023-04-20T16:52:49.507Z,7.70
2023-04-20T16:55:16.018Z,7.70
2023-04-20T16:57:42.595Z,7.22
2023-04-20T17:00:10.724Z,8.05
2023-04-20T17:02:38.247Z,7.82
2023-04-20T17:05:06.082Z,7.53
2023-04-20T17:07:33.154Z,8.10
2023-04-20T17:09:59.815Z,7.67
2023-04-20T17:12:26.370Z,8.40
2023-04-20T17:14:52.832Z,7.43
2023-04-20T17:17:19.295Z,7.50
2023-04-20T17:19:46.830Z,7.40
2023-04-20T17:22:13.401Z,7.30
2023-04-20T17:24:39.829Z,6.87
2023-04-20T17:27:06.322Z,7.30
2023-04-20T17:29:38.146Z,7.07
2023-04-20T17:32:05.800Z,7.90
2023-04-20T17:34:32.412Z,7.10
2023-04-20T17:36:58.861Z,7.00
2023-04-20T17:39:26.122Z,7.90
2023-04-20T17:41:52.568Z,6.90
2023-04-20T17:44:19.928Z,7.07
2023-04-20T17:46:46.681Z,6.90
2023-04-20T17:49:13.219Z,7.00
2023-04-20T17:51:39.691Z,7.07
2023-04-20T17:54:07.680Z,7.60
2023-04-20T17:56:34.362Z,8.75
2023-04-20T17:59:01.197Z,8.63
2023-04-20T18:01:28.155Z,7.57
2023-04-20T18:03:54.885Z,5.53
2023-04-20T18:06:21.585Z,4.60
2023-04-20T18:08:48.112Z,5.00
2023-04-20T18:11:14.674Z,4.00
2023-04-20T18:13:41.254Z,3.90
2023-04-20T18:16:08.417Z,4.37
2023-04-20T18:18:35.158Z,4.80
2023-04-20T18:21:01.673Z,5.60
2023-04-20T18:23:29.915Z,5.33
2023-04-20T18:25:56.550Z,5.47
2023-04-20T18:28:23.483Z,5.20
2023-04-20T18:30:49.981Z,5.87
2023-04-20T18:33:16.471Z,6.30
2023-04-20T18:35:43.551Z,7.10
2023-04-20T18:38:10.032Z,7.37
2023-04-20T18:40:36.666Z,7.50
2023-04-20T18:43:03.429Z,7.47
2023-04-20T18:45:30.150Z,7.27
2023-04-20T18:47:58.063Z,7.43
2023-04-20T18:50:24.544Z,9.13
2023-04-20T18:52:50.963Z,9.63
2023-04-20T18:55:17.573Z,11.53
2023-04-20T18:57:44.000Z,11.23
2023-04-20T19:00:10.896Z,11.07
2023-04-20T19:02:37.745Z,15.00
2023-04-20T19:05:04.746Z,11.83
2023-04-20T19:07:31.180Z,18.60
2023-04-20T19:09:57.700Z,22.70
2023-04-20T19:12:24.285Z,27.30
2023-04-20T19:14:50.777Z,11.63
2023-04-20T19:17:17.230Z,27.67
2023-04-20T19:19:43.695Z,21.70
2023-04-20T19:22:10.167Z,20.53
2023-04-20T19:24:36.619Z,30.50
2023-04-20T19:27:03.216Z,27.40
2023-04-20T19:29:29.766Z,26.00
2023-04-20T19:31:56.387Z,20.93
2023-04-20T19:34:22.920Z,24.80
2023-04-20T19:36:49.491Z,16.20
2023-04-20T19:39:16.063Z,15.13
2023-04-20T19:41:42.510Z,29.73
2023-04-20T19:44:10.495Z,21.07
2023-04-20T19:46:38.606Z,16.07
2023-04-20T19:49:05.653Z,23.13
2023-04-20T19:51:32.641Z,16.83
2023-04-20T19:54:03.232Z,18.13
2023-04-20T19:56:29.898Z,21.50
2023-04-20T19:58:56.412Z,23.23
2023-04-20T20:01:22.927Z,13.50
2023-04-20T20:03:49.603Z,28.73
2023-04-20T20:06:16.308Z,19.10
2023-04-20T20:08:42.765Z,16.40
2023-04-20T20:11:09.250Z,13.30
2023-04-20T20:13:35.757Z,14.20
2023-04-20T20:16:02.798Z,13.50
2023-04-20T20:18:29.268Z,13.40
2023-04-20T20:20:55.845Z,13.27
2023-04-20T20:23:22.446Z,12.40
2023-04-20T20:25:48.916Z,17.13
2023-04-20T20:28:15.543Z,98.93
2023-04-20T20:30:45.022Z,49.03
2023-04-20T20:33:12.309Z,46.13
2023-04-20T20:35:39.750Z,144.27
2023-04-20T20:38:07.809Z,71.93
2023-04-20T20:40:35.450Z,154.90
2023-04-20T20:43:02.098Z,49.80
2023-04-20T20:45:28.936Z,90.97
2023-04-20T20:47:55.804Z,39.97
2023-04-20T20:50:22.943Z,136.40
2023-04-20T20:52:49.744Z,24.30
2023-04-20T20:55:16.274Z,79.87
2023-04-20T20:57:42.741Z,132.80
2023-04-20T21:00:10.368Z,23.13
2023-04-20T21:02:37.737Z,96.60
2023-04-20T21:05:04.874Z,43.30
2023-04-20T21:07:31.387Z,71.67
2023-04-20T21:09:57.840Z,19.53
2023-04-20T21:12:26.399Z,32.97
2023-04-20T21:14:53.480Z,26.00
2023-04-20T21:17:20.312Z,50.17
2023-04-20T21:19:48.438Z,87.10
2023-04-20T21:22:15.064Z,117.77
2023-04-20T21:24:41.500Z,61.73
2023-04-20T21:27:08.058Z,34.93
2023-04-20T21:29:34.628Z,27.67
2023-04-20T21:32:01.107Z,76.83
2023-04-20T21:34:27.788Z,35.40
2023-04-20T21:36:54.583Z,27.93
2023-04-20T21:39:21.211Z,28.90
2023-04-20T21:41:47.800Z,37.40
2023-04-20T21:44:14.265Z,24.97
2023-04-20T21:46:40.841Z,27.97
2023-04-20T21:49:07.333Z,29.00
2023-04-20T21:51:33.887Z,19.37
2023-04-20T21:54:00.325Z,19.77
2023-04-20T21:56:26.926Z,20.83
2023-04-20T21:58:53.428Z,20.63
2023-04-20T22:01:19.855Z,20.07
2023-04-20T22:03:47.616Z,21.73
2023-04-20T22:06:14.542Z,20.37
2023-04-20T22:08:41.885Z,20.57
2023-04-20T22:11:08.914Z,21.40
2023-04-20T22:13:37.633Z,20.73
2023-04-20T22:16:04.463Z,20.30
2023-04-20T22:18:30.945Z,21.00
2023-04-20T22:20:57.427Z,20.33
2023-04-20T22:23:24.258Z,21.30
2023-04-20T22:25:50.903Z,22.10
2023-04-20T22:28:17.358Z,21.80
2023-04-20T22:30:45.303Z,21.33
2023-04-20T22:33:11.746Z,22.17
2023-04-20T22:35:38.370Z,22.63
2023-04-20T22:38:04.886Z,23.17
2023-04-20T22:40:31.388Z,22.80
2023-04-20T22:42:57.872Z,22.53
2023-04-20T22:45:24.362Z,23.03
2023-04-20T22:47:50.882Z,22.60
2023-04-20T22:50:17.409Z,23.63
2023-04-20T22:52:43.956Z,23.45
2023-04-20T22:55:11.123Z,23.60
2023-04-20T22:57:38.879Z,22.77
2023-04-20T23:00:10.123Z,24.13
2023-04-20T23:02:37.592Z,24.07
2023-04-20T23:05:05.815Z,24.23
2023-04-20T23:07:33.328Z,22.17
2023-04-20T23:10:00.426Z,22.43
2023-04-20T23:12:29.284Z,22.97
2023-04-20T23:14:56.670Z,22.20
2023-04-20T23:17:23.355Z,23.07
2023-04-20T23:19:50.942Z,21.50
2023-04-20T23:22:17.630Z,22.90
2023-04-20T23:24:44.320Z,23.40
2023-04-20T23:27:10.882Z,22.17
2023-04-20T23:29:37.307Z,22.95
2023-04-20T23:32:04.055Z,23.13
2023-04-20T23:34:30.658Z,22.07
2023-04-20T23:36:57.101Z,20.83
2023-04-20T23:39:23.666Z,22.17
2023-04-20T23:41:50.365Z,21.80
2023-04-20T23:44:16.813Z,21.90
2023-04-20T23:46:43.248Z,21.47
2023-04-20T23:49:09.789Z,22.73
2023-04-20T23:51:36.247Z,22.77
2023-04-20T23:54:03.470Z,22.03
2023-04-20T23:56:29.933Z,22.35
2023-04-20T23:58:56.362Z,23.10
